sensor_id;sensor_type;location;lat;lon;timestamp;pressure;altitude;pressure_sealevel;temperature;humidity
52535;BME280;38443;53.164;5.802;2022-08-19T00:00:15;101548.44;;;14.71;80.90
52535;BME280;38443;53.164;5.802;2022-08-19T00:02:42;101553.75;;;14.74;80.47
52535;BME280;38443;53.164;5.802;2022-08-19T00:05:09;101543.88;;;14.73;80.41
52535;BME280;38443;53.164;5.802;2022-08-19T00:07:34;101546.75;;;14.68;80.21
52535;BME280;38443;53.164;5.802;2022-08-19T00:10:00;101550.53;;;14.63;80.66
52535;BME280;38443;53.164;5.802;2022-08-19T00:12:26;101543.56;;;14.55;80.88
52535;BME280;38443;53.164;5.802;2022-08-19T00:14:51;101550.09;;;14.48;81.08
52535;BME280;38443;53.164;5.802;2022-08-19T00:17:19;101541.28;;;14.43;81.26
52535;BME280;38443;53.164;5.802;2022-08-19T00:19:45;101541.25;;;14.45;81.47
52535;BME280;38443;53.164;5.802;2022-08-19T00:22:10;101544.84;;;14.45;81.24
52535;BME280;38443;53.164;5.802;2022-08-19T00:24:35;101538.50;;;14.46;80.97
52535;BME280;38443;53.164;5.802;2022-08-19T00:27:02;101534.09;;;14.44;81.31
52535;BME280;38443;53.164;5.802;2022-08-19T00:29:27;101534.97;;;14.44;81.52
52535;BME280;38443;53.164;5.802;2022-08-19T00:31:53;101537.63;;;14.46;81.80
52535;BME280;38443;53.164;5.802;2022-08-19T00:34:20;101527.72;;;14.46;81.28
52535;BME280;38443;53.164;5.802;2022-08-19T00:36:47;101527.75;;;14.45;81.85
52535;BME280;38443;53.164;5.802;2022-08-19T00:39:14;101526.84;;;14.46;81.38
52535;BME280;38443;53.164;5.802;2022-08-19T00:41:41;101518.78;;;14.46;81.63
52535;BME280;38443;53.164;5.802;2022-08-19T00:44:11;101522.34;;;14.46;81.50
52535;BME280;38443;53.164;5.802;2022-08-19T00:46:40;101512.56;;;14.44;81.79
52535;BME280;38443;53.164;5.802;2022-08-19T00:49:18;101515.38;;;14.39;81.71
52535;BME280;38443;53.164;5.802;2022-08-19T00:51:47;101510.94;;;14.38;81.74
52535;BME280;38443;53.164;5.802;2022-08-19T00:54:13;101514.63;;;14.35;81.90
52535;BME280;38443;53.164;5.802;2022-08-19T00:56:40;101513.81;;;14.33;82.09
52535;BME280;38443;53.164;5.802;2022-08-19T00:59:06;101514.78;;;14.31;81.86
52535;BME280;38443;53.164;5.802;2022-08-19T01:01:37;101512.19;;;14.28;82.54
52535;BME280;38443;53.164;5.802;2022-08-19T01:04:04;101522.19;;;14.24;82.24
52535;BME280;38443;53.164;5.802;2022-08-19T01:06:31;101521.44;;;14.19;82.48
52535;BME280;38443;53.164;5.802;2022-08-19T01:08:58;101523.28;;;14.19;82.58
52535;BME280;38443;53.164;5.802;2022-08-19T01:11:24;101531.47;;;14.15;82.62
52535;BME280;38443;53.164;5.802;2022-08-19T01:13:52;101516.19;;;14.16;82.78
52535;BME280;38443;53.164;5.802;2022-08-19T01:16:20;101521.63;;;14.14;82.54
52535;BME280;38443;53.164;5.802;2022-08-19T01:18:47;101522.59;;;14.12;83.18
52535;BME280;38443;53.164;5.802;2022-08-19T01:21:23;101510.00;;;14.12;82.53
52535;BME280;38443;53.164;5.802;2022-08-19T01:23:52;101509.19;;;14.10;83.08
52535;BME280;38443;53.164;5.802;2022-08-19T01:26:21;101511.03;;;14.08;82.80
52535;BME280;38443;53.164;5.802;2022-08-19T01:28:49;101504.69;;;14.11;82.82
52535;BME280;38443;53.164;5.802;2022-08-19T01:31:20;101505.50;;;14.13;82.69
52535;BME280;38443;53.164;5.802;2022-08-19T01:33:47;101510.00;;;14.12;82.70
52535;BME280;38443;53.164;5.802;2022-08-19T01:36:19;101512.72;;;14.12;82.47
52535;BME280;38443;53.164;5.802;2022-08-19T01:38:47;101514.41;;;14.15;83.14
52535;BME280;38443;53.164;5.802;2022-08-19T01:41:13;101515.31;;;14.15;83.06
52535;BME280;38443;53.164;5.802;2022-08-19T01:43:39;101519.88;;;14.13;82.80
52535;BME280;38443;53.164;5.802;2022-08-19T01:46:05;101519.94;;;14.10;82.56
52535;BME280;38443;53.164;5.802;2022-08-19T01:48:37;101516.44;;;14.08;83.10
52535;BME280;38443;53.164;5.802;2022-08-19T01:51:03;101514.56;;;14.10;82.82
52535;BME280;38443;53.164;5.802;2022-08-19T01:53:28;101498.47;;;14.09;83.13
52535;BME280;38443;53.164;5.802;2022-08-19T01:55:54;101505.63;;;14.10;82.92
52535;BME280;38443;53.164;5.802;2022-08-19T01:58:22;101502.06;;;14.09;82.85
52535;BME280;38443;53.164;5.802;2022-08-19T02:00:50;101504.75;;;14.09;83.19
52535;BME280;38443;53.164;5.802;2022-08-19T02:03:16;101511.88;;;14.10;83.17
52535;BME280;38443;53.164;5.802;2022-08-19T02:05:42;101511.00;;;14.10;83.24
52535;BME280;38443;53.164;5.802;2022-08-19T02:08:08;101510.13;;;14.09;83.11
52535;BME280;38443;53.164;5.802;2022-08-19T02:10:39;101511.03;;;14.08;83.74
52535;BME280;38443;53.164;5.802;2022-08-19T02:13:04;101505.72;;;14.07;83.58
52535;BME280;38443;53.164;5.802;2022-08-19T02:15:29;101506.69;;;14.04;83.36
52535;BME280;38443;53.164;5.802;2022-08-19T02:17:55;101516.72;;;13.99;83.62
52535;BME280;38443;53.164;5.802;2022-08-19T02:20:20;101510.59;;;13.95;83.80
52535;BME280;38443;53.164;5.802;2022-08-19T02:22:45;101509.69;;;13.95;83.41
52535;BME280;38443;53.164;5.802;2022-08-19T02:25:13;101509.69;;;13.95;83.62
52535;BME280;38443;53.164;5.802;2022-08-19T02:27:39;101514.16;;;13.96;83.84
52535;BME280;38443;53.164;5.802;2022-08-19T02:30:07;101515.97;;;13.95;83.77
52535;BME280;38443;53.164;5.802;2022-08-19T02:32:33;101510.63;;;13.94;83.55
52535;BME280;38443;53.164;5.802;2022-08-19T02:34:59;101505.28;;;13.92;83.58
52535;BME280;38443;53.164;5.802;2022-08-19T02:37:24;101506.28;;;13.90;83.94
52535;BME280;38443;53.164;5.802;2022-08-19T02:40:08;101509.00;;;13.88;83.59
52535;BME280;38443;53.164;5.802;2022-08-19T02:42:34;101511.69;;;13.88;83.90
52535;BME280;38443;53.164;5.802;2022-08-19T02:44:59;101511.88;;;13.84;83.97
52535;BME280;38443;53.164;5.802;2022-08-19T02:47:25;101521.78;;;13.82;84.21
52535;BME280;38443;53.164;5.802;2022-08-19T02:49:50;101511.13;;;13.79;84.36
52535;BME280;38443;53.164;5.802;2022-08-19T02:52:16;101514.75;;;13.77;84.06
52535;BME280;38443;53.164;5.802;2022-08-19T02:54:41;101515.59;;;13.80;84.44
52535;BME280;38443;53.164;5.802;2022-08-19T02:57:07;101509.31;;;13.79;84.68
52535;BME280;38443;53.164;5.802;2022-08-19T02:59:33;101506.69;;;13.77;84.93
52535;BME280;38443;53.164;5.802;2022-08-19T03:01:59;101510.28;;;13.76;84.71
52535;BME280;38443;53.164;5.802;2022-08-19T03:04:24;101512.06;;;13.77;84.65
52535;BME280;38443;53.164;5.802;2022-08-19T03:06:50;101504.00;;;13.77;84.90
52535;BME280;38443;53.164;5.802;2022-08-19T03:09:18;101505.84;;;13.75;85.10
52535;BME280;38443;53.164;5.802;2022-08-19T03:11:44;101505.03;;;13.73;85.04
52535;BME280;38443;53.164;5.802;2022-08-19T03:14:10;101498.81;;;13.71;84.90
52535;BME280;38443;53.164;5.802;2022-08-19T03:16:45;101500.56;;;13.72;84.90
52535;BME280;38443;53.164;5.802;2022-08-19T03:19:12;101495.28;;;13.69;85.03
52535;BME280;38443;53.164;5.802;2022-08-19T03:21:38;101499.75;;;13.69;85.22
52535;BME280;38443;53.164;5.802;2022-08-19T03:24:06;101496.25;;;13.67;84.79
52535;BME280;38443;53.164;5.802;2022-08-19T03:26:32;101501.63;;;13.67;85.17
52535;BME280;38443;53.164;5.802;2022-08-19T03:28:57;101499.91;;;13.64;85.18
52535;BME280;38443;53.164;5.802;2022-08-19T03:31:26;101500.84;;;13.63;85.10
52535;BME280;38443;53.164;5.802;2022-08-19T03:33:52;101500.03;;;13.61;85.24
52535;BME280;38443;53.164;5.802;2022-08-19T03:36:22;101498.28;;;13.59;85.68
52535;BME280;38443;53.164;5.802;2022-08-19T03:38:51;101507.25;;;13.59;85.63
52535;BME280;38443;53.164;5.802;2022-08-19T03:41:23;101498.28;;;13.59;85.80
52535;BME280;38443;53.164;5.802;2022-08-19T03:43:50;101504.50;;;13.61;85.41
52535;BME280;38443;53.164;5.802;2022-08-19T03:46:20;101504.50;;;13.61;85.63
52535;BME280;38443;53.164;5.802;2022-08-19T03:48:46;101504.56;;;13.59;85.54
52535;BME280;38443;53.164;5.802;2022-08-19T03:51:24;101505.50;;;13.58;86.18
52535;BME280;38443;53.164;5.802;2022-08-19T03:53:51;101507.25;;;13.59;85.74
52535;BME280;38443;53.164;5.802;2022-08-19T03:56:17;101504.56;;;13.59;85.64
52535;BME280;38443;53.164;5.802;2022-08-19T03:58:42;101501.88;;;13.59;85.82
52535;BME280;38443;53.164;5.802;2022-08-19T04:01:13;101511.69;;;13.60;85.72
52535;BME280;38443;53.164;5.802;2022-08-19T04:03:40;101501.88;;;13.59;85.95
52535;BME280;38443;53.164;5.802;2022-08-19T04:06:27;101502.81;;;13.58;86.09
52535;BME280;38443;53.164;5.802;2022-08-19T04:08:53;101500.09;;;13.58;85.58
52535;BME280;38443;53.164;5.802;2022-08-19T04:11:23;101492.03;;;13.58;86.25
52535;BME280;38443;53.164;5.802;2022-08-19T04:13:50;101488.44;;;13.59;85.93
52535;BME280;38443;53.164;5.802;2022-08-19T04:16:17;101492.88;;;13.60;86.07
52535;BME280;38443;53.164;5.802;2022-08-19T04:18:42;101483.88;;;13.61;86.11
52535;BME280;38443;53.164;5.802;2022-08-19T04:21:08;101480.25;;;13.62;85.92
52535;BME280;38443;53.164;5.802;2022-08-19T04:23:34;101480.28;;;13.61;85.64
52535;BME280;38443;53.164;5.802;2022-08-19T04:26:02;101474.88;;;13.62;85.67
52535;BME280;38443;53.164;5.802;2022-08-19T04:28:27;101471.31;;;13.62;85.96
52535;BME280;38443;53.164;5.802;2022-08-19T04:30:54;101475.81;;;13.61;86.46
52535;BME280;38443;53.164;5.802;2022-08-19T04:33:23;101471.34;;;13.60;85.83
52535;BME280;38443;53.164;5.802;2022-08-19T04:35:50;101477.69;;;13.59;86.00
52535;BME280;38443;53.164;5.802;2022-08-19T04:38:18;101467.84;;;13.58;86.52
52535;BME280;38443;53.164;5.802;2022-08-19T04:40:47;101466.13;;;13.55;86.47
52535;BME280;38443;53.164;5.802;2022-08-19T04:43:32;101468.84;;;13.54;86.44
52535;BME280;38443;53.164;5.802;2022-08-19T04:45:58;101475.94;;;13.56;86.49
52535;BME280;38443;53.164;5.802;2022-08-19T04:48:28;101467.84;;;13.58;86.47
52535;BME280;38443;53.164;5.802;2022-08-19T04:50:57;101466.84;;;13.61;86.97
52535;BME280;38443;53.164;5.802;2022-08-19T04:53:27;101470.31;;;13.64;86.70
52535;BME280;38443;53.164;5.802;2022-08-19T04:56:03;101475.66;;;13.66;86.93
52535;BME280;38443;53.164;5.802;2022-08-19T04:58:29;101479.16;;;13.69;86.73
52535;BME280;38443;53.164;5.802;2022-08-19T05:00:54;101480.84;;;13.72;86.94
52535;BME280;38443;53.164;5.802;2022-08-19T05:03:20;101484.22;;;13.79;86.72
52535;BME280;38443;53.164;5.802;2022-08-19T05:05:47;101481.47;;;13.80;86.63
52535;BME280;38443;53.164;5.802;2022-08-19T05:08:20;101476.06;;;13.82;87.22
52535;BME280;38443;53.164;5.802;2022-08-19T05:10:51;101480.41;;;13.86;86.71
52535;BME280;38443;53.164;5.802;2022-08-19T05:13:18;101480.28;;;13.89;86.66
52535;BME280;38443;53.164;5.802;2022-08-19T05:15:53;101474.81;;;13.92;86.72
52535;BME280;38443;53.164;5.802;2022-08-19T05:18:18;101478.22;;;13.97;86.72
52535;BME280;38443;53.164;5.802;2022-08-19T05:21:12;101472.78;;;13.99;87.06
52535;BME280;38443;53.164;5.802;2022-08-19T05:23:57;101478.03;;;14.03;87.07
52535;BME280;38443;53.164;5.802;2022-08-19T05:26:24;101473.38;;;14.08;86.93
52535;BME280;38443;53.164;5.802;2022-08-19T05:28:52;101482.06;;;14.16;86.95
52535;BME280;38443;53.164;5.802;2022-08-19T05:31:17;101482.75;;;14.23;87.11
52535;BME280;38443;53.164;5.802;2022-08-19T05:33:43;101483.41;;;14.30;87.22
52535;BME280;38443;53.164;5.802;2022-08-19T05:36:08;101481.38;;;14.36;87.20
52535;BME280;38443;53.164;5.802;2022-08-19T05:38:34;101477.59;;;14.42;87.18
52535;BME280;38443;53.164;5.802;2022-08-19T05:41:06;101484.44;;;14.51;87.21
52535;BME280;38443;53.164;5.802;2022-08-19T05:43:31;101480.69;;;14.56;86.91
52535;BME280;38443;53.164;5.802;2022-08-19T05:45:57;101467.97;;;14.62;87.07
52535;BME280;38443;53.164;5.802;2022-08-19T05:48:23;101468.59;;;14.68;87.19
52535;BME280;38443;53.164;5.802;2022-08-19T05:50:49;101465.59;;;14.78;87.50
52535;BME280;38443;53.164;5.802;2022-08-19T05:53:16;101455.44;;;14.84;87.16
52535;BME280;38443;53.164;5.802;2022-08-19T05:55:41;101464.06;;;14.94;87.59
52535;BME280;38443;53.164;5.802;2022-08-19T05:58:08;101470.09;;;15.01;86.90
52535;BME280;38443;53.164;5.802;2022-08-19T06:00:35;101478.72;;;15.10;87.14
52535;BME280;38443;53.164;5.802;2022-08-19T06:03:01;101469.47;;;15.18;87.15
52535;BME280;38443;53.164;5.802;2022-08-19T06:05:29;101467.28;;;15.27;87.14
52535;BME280;38443;53.164;5.802;2022-08-19T06:07:55;101479.50;;;15.38;87.27
52535;BME280;38443;53.164;5.802;2022-08-19T06:10:20;101472.03;;;15.44;87.27
52535;BME280;38443;53.164;5.802;2022-08-19T06:12:47;101460.84;;;15.53;87.05
52535;BME280;38443;53.164;5.802;2022-08-19T06:15:13;101456.03;;;15.62;87.13
52535;BME280;38443;53.164;5.802;2022-08-19T06:17:39;101458.50;;;15.68;87.09
52535;BME280;38443;53.164;5.802;2022-08-19T06:20:09;101457.31;;;15.75;87.04
52535;BME280;38443;53.164;5.802;2022-08-19T06:22:48;101470.44;;;15.84;86.78
52535;BME280;38443;53.164;5.802;2022-08-19T06:25:15;101459.19;;;15.95;86.88
52535;BME280;38443;53.164;5.802;2022-08-19T06:27:42;101447.19;;;16.02;86.90
52535;BME280;38443;53.164;5.802;2022-08-19T06:30:08;101456.72;;;16.11;86.92
52535;BME280;38443;53.164;5.802;2022-08-19T06:32:35;101452.69;;;16.21;86.78
52535;BME280;38443;53.164;5.802;2022-08-19T06:35:00;101460.41;;;16.30;86.89
52535;BME280;38443;53.164;5.802;2022-08-19T06:37:25;101470.84;;;16.79;86.69
52535;BME280;38443;53.164;5.802;2022-08-19T06:39:51;101468.16;;;17.57;85.34
52535;BME280;38443;53.164;5.802;2022-08-19T06:42:16;101463.47;;;18.33;83.72
52535;BME280;38443;53.164;5.802;2022-08-19T06:44:45;101457.81;;;19.06;81.91
52535;BME280;38443;53.164;5.802;2022-08-19T06:47:13;101455.13;;;19.69;80.18
52535;BME280;38443;53.164;5.802;2022-08-19T06:49:39;101447.25;;;20.27;79.03
52535;BME280;38443;53.164;5.802;2022-08-19T06:52:04;101433.84;;;20.68;77.44
52535;BME280;38443;53.164;5.802;2022-08-19T06:57:00;101444.72;;;21.26;73.88
52535;BME280;38443;53.164;5.802;2022-08-19T06:59:29;101434.88;;;21.52;75.13
52535;BME280;38443;53.164;5.802;2022-08-19T07:01:57;101438.56;;;21.65;74.57
52535;BME280;38443;53.164;5.802;2022-08-19T07:04:27;101440.97;;;21.97;72.79
52535;BME280;38443;53.164;5.802;2022-08-19T07:07:01;101433.75;;;22.23;71.04
52535;BME280;38443;53.164;5.802;2022-08-19T07:09:27;101440.13;;;22.49;71.93
52535;BME280;38443;53.164;5.802;2022-08-19T07:11:54;101442.31;;;22.70;71.30
52535;BME280;38443;53.164;5.802;2022-08-19T07:14:24;101442.31;;;22.70;69.89
52535;BME280;38443;53.164;5.802;2022-08-19T07:16:51;101442.97;;;22.99;70.33
52535;BME280;38443;53.164;5.802;2022-08-19T07:19:18;101444.72;;;23.13;69.94
52535;BME280;38443;53.164;5.802;2022-08-19T07:21:49;101442.44;;;23.20;69.42
52535;BME280;38443;53.164;5.802;2022-08-19T07:24:16;101437.38;;;23.26;69.29
52535;BME280;38443;53.164;5.802;2022-08-19T07:26:42;101436.91;;;23.45;68.38
52535;BME280;38443;53.164;5.802;2022-08-19T07:29:09;101439.41;;;23.48;68.01
52535;BME280;38443;53.164;5.802;2022-08-19T07:31:35;101437.63;;;23.60;67.15
52535;BME280;38443;53.164;5.802;2022-08-19T07:34:04;101439.59;;;23.58;67.39
52535;BME280;38443;53.164;5.802;2022-08-19T07:36:31;101441.50;;;23.82;66.79
52535;BME280;38443;53.164;5.802;2022-08-19T07:38:59;101437.84;;;23.94;66.31
52535;BME280;38443;53.164;5.802;2022-08-19T07:41:27;101443.66;;;24.14;65.83
52535;BME280;38443;53.164;5.802;2022-08-19T07:43:57;101445.38;;;24.15;65.71
52535;BME280;38443;53.164;5.802;2022-08-19T07:46:23;101452.25;;;23.96;65.18
52535;BME280;38443;53.164;5.802;2022-08-19T07:48:49;101446.16;;;23.93;65.50
52535;BME280;38443;53.164;5.802;2022-08-19T07:51:18;101441.97;;;24.00;65.13
52535;BME280;38443;53.164;5.802;2022-08-19T07:53:44;101439.69;;;24.18;64.86
52535;BME280;38443;53.164;5.802;2022-08-19T07:56:12;101446.19;;;24.28;64.56
52535;BME280;38443;53.164;5.802;2022-08-19T07:58:40;101448.50;;;24.21;64.61
52535;BME280;38443;53.164;5.802;2022-08-19T08:01:07;101454.88;;;24.22;64.49
52535;BME280;38443;53.164;5.802;2022-08-19T08:03:36;101459.59;;;24.31;63.97
52535;BME280;38443;53.164;5.802;2022-08-19T08:06:20;101447.19;;;24.38;64.38
52535;BME280;38443;53.164;5.802;2022-08-19T08:09:04;101452.59;;;24.51;64.42
52535;BME280;38443;53.164;5.802;2022-08-19T08:11:53;101450.53;;;24.66;64.15
52535;BME280;38443;53.164;5.802;2022-08-19T08:14:31;101450.16;;;24.71;62.93
52535;BME280;38443;53.164;5.802;2022-08-19T08:16:58;101441.47;;;24.41;64.13
52535;BME280;38443;53.164;5.802;2022-08-19T08:19:26;101452.06;;;24.46;63.93
52535;BME280;38443;53.164;5.802;2022-08-19T08:21:56;101462.38;;;24.78;62.04
52535;BME280;38443;53.164;5.802;2022-08-19T08:24:22;101458.91;;;24.87;62.76
52535;BME280;38443;53.164;5.802;2022-08-19T08:26:47;101463.00;;;24.81;62.89
52535;BME280;38443;53.164;5.802;2022-08-19T08:29:14;101459.78;;;25.10;61.94
52535;BME280;38443;53.164;5.802;2022-08-19T08:31:42;101457.44;;;25.39;61.35
52535;BME280;38443;53.164;5.802;2022-08-19T08:34:08;101446.16;;;25.65;60.02
52535;BME280;38443;53.164;5.802;2022-08-19T08:36:39;101459.72;;;25.78;59.16
52535;BME280;38443;53.164;5.802;2022-08-19T08:39:18;101464.69;;;25.95;56.97
52535;BME280;38443;53.164;5.802;2022-08-19T08:41:51;101466.66;;;26.04;55.95
52535;BME280;38443;53.164;5.802;2022-08-19T08:44:41;101467.72;;;26.24;55.72
52535;BME280;38443;53.164;5.802;2022-08-19T08:47:13;101477.53;;;26.27;57.12
52535;BME280;38443;53.164;5.802;2022-08-19T08:49:56;101473.34;;;26.12;54.75
52535;BME280;38443;53.164;5.802;2022-08-19T08:52:30;101474.72;;;26.17;56.25
52535;BME280;38443;53.164;5.802;2022-08-19T08:55:04;101463.06;;;26.25;56.26
52535;BME280;38443;53.164;5.802;2022-08-19T08:57:36;101470.00;;;26.40;55.90
52535;BME280;38443;53.164;5.802;2022-08-19T09:00:07;101471.09;;;26.17;55.70
52535;BME280;38443;53.164;5.802;2022-08-19T09:02:33;101475.41;;;25.87;57.72
52535;BME280;38443;53.164;5.802;2022-08-19T09:04:58;101474.00;;;25.60;58.45
52535;BME280;38443;53.164;5.802;2022-08-19T09:15:58;101471.50;;;25.12;59.43
52535;BME280;38443;53.164;5.802;2022-08-19T09:18:38;101478.97;;;25.21;58.32
52535;BME280;38443;53.164;5.802;2022-08-19T09:21:04;101468.50;;;25.15;59.28
52535;BME280;38443;53.164;5.802;2022-08-19T09:23:29;101473.00;;;25.27;59.57
52535;BME280;38443;53.164;5.802;2022-08-19T09:25:55;101469.88;;;25.43;59.40
52535;BME280;38443;53.164;5.802;2022-08-19T09:28:20;101467.72;;;25.70;59.03
52535;BME280;38443;53.164;5.802;2022-08-19T09:30:45;101469.56;;;25.92;59.07
52535;BME280;38443;53.164;5.802;2022-08-19T09:33:11;101477.28;;;25.98;58.89
52535;BME280;38443;53.164;5.802;2022-08-19T09:35:37;101475.03;;;26.03;57.82
52535;BME280;38443;53.164;5.802;2022-08-19T09:38:02;101472.91;;;25.95;57.81
52535;BME280;38443;53.164;5.802;2022-08-19T09:40:29;101470.44;;;25.81;58.27
52535;BME280;38443;53.164;5.802;2022-08-19T09:42:55;101476.59;;;25.62;58.54
52535;BME280;38443;53.164;5.802;2022-08-19T09:45:22;101473.00;;;25.50;58.18
52535;BME280;38443;53.164;5.802;2022-08-19T09:47:52;101478.84;;;25.45;57.00
52535;BME280;38443;53.164;5.802;2022-08-19T09:50:17;101479.59;;;25.59;57.75
52535;BME280;38443;53.164;5.802;2022-08-19T09:52:44;101472.72;;;25.64;57.72
52535;BME280;38443;53.164;5.802;2022-08-19T09:55:10;101486.91;;;25.70;57.42
52535;BME280;38443;53.164;5.802;2022-08-19T09:57:36;101482.94;;;25.62;57.22
52535;BME280;38443;53.164;5.802;2022-08-19T10:00:04;101488.94;;;25.56;56.85
52535;BME280;38443;53.164;5.802;2022-08-19T10:02:30;101485.97;;;25.37;57.89
52535;BME280;38443;53.164;5.802;2022-08-19T10:04:55;101483.34;;;25.35;57.74
52535;BME280;38443;53.164;5.802;2022-08-19T10:07:39;101480.22;;;25.51;57.44
52535;BME280;38443;53.164;5.802;2022-08-19T10:10:06;101478.69;;;25.70;57.44
52535;BME280;38443;53.164;5.802;2022-08-19T10:12:33;101475.69;;;25.84;57.10
52535;BME280;38443;53.164;5.802;2022-08-19T10:14:59;101477.41;;;25.96;57.04
52535;BME280;38443;53.164;5.802;2022-08-19T10:17:25;101478.75;;;26.02;56.93
52535;BME280;38443;53.164;5.802;2022-08-19T10:19:51;101477.41;;;25.96;56.93
52535;BME280;38443;53.164;5.802;2022-08-19T10:22:18;101473.41;;;26.00;56.94
52535;BME280;38443;53.164;5.802;2022-08-19T10:24:45;101467.09;;;26.21;56.20
52535;BME280;38443;53.164;5.802;2022-08-19T10:27:11;101475.97;;;26.13;56.76
52535;BME280;38443;53.164;5.802;2022-08-19T10:29:38;101475.03;;;26.24;56.27
52535;BME280;38443;53.164;5.802;2022-08-19T10:32:06;101474.22;;;26.44;55.92
52535;BME280;38443;53.164;5.802;2022-08-19T10:34:33;101476.97;;;26.44;55.44
52535;BME280;38443;53.164;5.802;2022-08-19T10:36:59;101475.63;;;26.39;55.06
52535;BME280;38443;53.164;5.802;2022-08-19T10:39:25;101474.91;;;26.25;55.04
52535;BME280;38443;53.164;5.802;2022-08-19T10:41:53;101468.25;;;26.39;54.45
52535;BME280;38443;53.164;5.802;2022-08-19T10:44:18;101465.28;;;26.31;55.09
52535;BME280;38443;53.164;5.802;2022-08-19T10:46:45;101456.59;;;26.47;54.92
52535;BME280;38443;53.164;5.802;2022-08-19T10:49:12;101464.84;;;26.68;54.48
52535;BME280;38443;53.164;5.802;2022-08-19T10:51:39;101464.53;;;26.61;54.43
52535;BME280;38443;53.164;5.802;2022-08-19T10:54:23;101462.44;;;26.33;55.35
52535;BME280;38443;53.164;5.802;2022-08-19T10:57:09;101458.16;;;26.07;56.08
52535;BME280;38443;53.164;5.802;2022-08-19T10:59:34;101465.94;;;25.91;56.07
52535;BME280;38443;53.164;5.802;2022-08-19T11:02:02;101463.34;;;25.78;55.80
52535;BME280;38443;53.164;5.802;2022-08-19T11:04:28;101461.03;;;25.62;56.10
52535;BME280;38443;53.164;5.802;2022-08-19T11:06:53;101464.16;;;25.46;56.03
52535;BME280;38443;53.164;5.802;2022-08-19T11:09:22;101466.66;;;25.27;56.54
52535;BME280;38443;53.164;5.802;2022-08-19T11:11:52;101471.84;;;25.07;56.87
52535;BME280;38443;53.164;5.802;2022-08-19T11:14:18;101471.88;;;24.96;57.37
52535;BME280;38443;53.164;5.802;2022-08-19T11:16:46;101471.22;;;24.93;56.83
52535;BME280;38443;53.164;5.802;2022-08-19T11:19:11;101468.50;;;25.04;57.20
52535;BME280;38443;53.164;5.802;2022-08-19T11:21:42;101468.78;;;25.23;55.93
52535;BME280;38443;53.164;5.802;2022-08-19T11:24:13;101468.66;;;25.25;56.32
52535;BME280;38443;53.164;5.802;2022-08-19T11:26:41;101456.16;;;25.09;56.40
52535;BME280;38443;53.164;5.802;2022-08-19T11:29:12;101472.63;;;24.98;57.65
52535;BME280;38443;53.164;5.802;2022-08-19T11:31:40;101472.47;;;24.88;57.87
52535;BME280;38443;53.164;5.802;2022-08-19T11:34:08;101465.34;;;24.75;57.96
52535;BME280;38443;53.164;5.802;2022-08-19T11:36:34;101471.16;;;24.59;58.15
52535;BME280;38443;53.164;5.802;2022-08-19T11:39:04;101468.84;;;24.41;58.07
52535;BME280;38443;53.164;5.802;2022-08-19T11:41:29;101467.97;;;24.41;58.03
52535;BME280;38443;53.164;5.802;2022-08-19T11:43:55;101463.78;;;24.48;57.75
52535;BME280;38443;53.164;5.802;2022-08-19T11:46:22;101459.88;;;24.39;57.43
52535;BME280;38443;53.164;5.802;2022-08-19T11:48:49;101467.47;;;24.36;57.91
52535;BME280;38443;53.164;5.802;2022-08-19T11:51:20;101465.06;;;24.31;57.70
52535;BME280;38443;53.164;5.802;2022-08-19T11:53:47;101463.72;;;24.37;58.11
52535;BME280;38443;53.164;5.802;2022-08-19T11:56:13;101467.56;;;24.58;58.02
52535;BME280;38443;53.164;5.802;2022-08-19T11:58:39;101464.75;;;24.94;56.98
52535;BME280;38443;53.164;5.802;2022-08-19T12:01:08;101467.13;;;25.09;56.42
52535;BME280;38443;53.164;5.802;2022-08-19T12:03:34;101468.53;;;25.26;56.55
52535;BME280;38443;53.164;5.802;2022-08-19T12:06:07;101470.38;;;25.37;56.01
52535;BME280;38443;53.164;5.802;2022-08-19T12:08:32;101466.78;;;25.37;56.96
52535;BME280;38443;53.164;5.802;2022-08-19T12:10:58;101478.25;;;25.31;56.91
52535;BME280;38443;53.164;5.802;2022-08-19T12:13:27;101472.78;;;25.31;57.22
52535;BME280;38443;53.164;5.802;2022-08-19T12:15:52;101473.38;;;25.45;57.14
52535;BME280;38443;53.164;5.802;2022-08-19T12:18:19;101475.00;;;25.48;56.84
52535;BME280;38443;53.164;5.802;2022-08-19T12:20:44;101478.84;;;25.57;56.75
52535;BME280;38443;53.164;5.802;2022-08-19T12:23:11;101474.97;;;25.71;56.42
52535;BME280;38443;53.164;5.802;2022-08-19T12:25:43;101484.31;;;25.68;55.97
52535;BME280;38443;53.164;5.802;2022-08-19T12:28:13;101485.44;;;25.65;56.44
52535;BME280;38443;53.164;5.802;2022-08-19T12:30:38;101485.59;;;25.53;56.28
52535;BME280;38443;53.164;5.802;2022-08-19T12:33:04;101485.97;;;25.48;56.77
52535;BME280;38443;53.164;5.802;2022-08-19T12:35:29;101479.09;;;25.54;56.66
52535;BME280;38443;53.164;5.802;2022-08-19T12:37:55;101477.25;;;25.43;57.32
52535;BME280;38443;53.164;5.802;2022-08-19T12:40:20;101480.84;;;25.43;56.72
52535;BME280;38443;53.164;5.802;2022-08-19T12:42:46;101477.00;;;25.46;56.55
52535;BME280;38443;53.164;5.802;2022-08-19T12:45:13;101479.84;;;25.33;55.92
52535;BME280;38443;53.164;5.802;2022-08-19T12:47:39;101473.91;;;25.28;56.06
52535;BME280;38443;53.164;5.802;2022-08-19T12:50:06;101479.97;;;25.32;55.98
52535;BME280;38443;53.164;5.802;2022-08-19T12:52:34;101473.41;;;25.34;55.97
52535;BME280;38443;53.164;5.802;2022-08-19T12:55:03;101474.72;;;25.51;56.08
52535;BME280;38443;53.164;5.802;2022-08-19T12:57:30;101467.38;;;25.63;56.07
52535;BME280;38443;53.164;5.802;2022-08-19T12:59:56;101477.66;;;25.82;55.88
52535;BME280;38443;53.164;5.802;2022-08-19T13:02:21;101466.19;;;25.88;55.32
52535;BME280;38443;53.164;5.802;2022-08-19T13:04:47;101475.94;;;25.92;55.54